Time;durP1;ratioP1;P1;durP2;ratioP2;P2;SDS_P1;SDS_P2;PMS_P1;PMS_P2;Temp;Humidity;BMP_temperature;BMP_pressure;BME280_temperature;BME280_humidity;BME280_pressure;Samples;Min_cycle;Max_cycle;Signal;HPM_P1;HPM_P2
2023/02/01 00:00:47;;;;;;;6.43;3.10;;;;;;;4.23;87.32;99759.56;10457683;28;20386;-73
2023/02/01 00:05:57;;;;;;;5.82;2.90;;;;;;;4.49;84.70;99763.63;10456289;28;20060;-73
2023/02/01 00:11:00;;;;;;;5.65;2.83;;;;;;;4.42;85.58;99765.41;10457922;28;20037;-73
2023/02/01 00:16:17;;;;;;;5.60;2.20;;;;;;;4.35;86.04;99762.94;10457478;28;20494;-74
2023/02/01 00:21:20;;;;;;;4.93;2.37;;;;;;;4.36;86.07;99765.50;10456430;28;20041;-76
2023/02/01 00:26:41;;;;;;;5.47;2.70;;;;;;;4.40;85.83;99764.59;10459801;28;20315;-77
2023/02/01 00:31:44;;;;;;;5.55;2.33;;;;;;;4.32;87.27;99761.22;10460477;28;20100;-76
2023/02/01 00:36:46;;;;;;;6.53;3.05;;;;;;;4.33;86.38;99765.53;10458613;28;20140;-77
2023/02/01 00:41:48;;;;;;;6.32;2.90;;;;;;;4.27;87.29;99760.41;10459236;28;20071;-78
2023/02/01 00:46:49;;;;;;;6.20;2.38;;;;;;;4.46;85.55;99768.88;10442449;28;20041;-77
2023/02/01 00:51:51;;;;;;;8.65;2.65;;;;;;;4.48;84.78;99757.56;10459471;28;20453;-76
2023/02/01 00:56:53;;;;;;;6.60;2.65;;;;;;;4.34;84.83;99764.66;10464986;28;20064;-76
2023/02/01 01:01:55;;;;;;;8.90;3.47;;;;;;;4.42;83.82;99767.16;10465883;28;20041;-77
2023/02/01 01:06:57;;;;;;;8.73;3.30;;;;;;;4.35;83.65;99771.59;10466008;28;20045;-78
2023/02/01 01:12:02;;;;;;;7.30;2.55;;;;;;;4.39;83.64;99772.44;10466259;28;20045;-77
2023/02/01 01:17:05;;;;;;;11.52;2.58;;;;;;;4.31;83.33;99764.69;10465069;28;20041;-76
2023/02/01 01:22:07;;;;;;;5.80;2.10;;;;;;;4.35;82.85;99763.78;10466312;28;20049;-78
2023/02/01 01:27:08;;;;;;;8.38;2.15;;;;;;;4.28;82.93;99764.72;10469887;28;20045;-78
2023/02/01 01:32:10;;;;;;;9.48;2.97;;;;;;;4.26;82.26;99764.75;10465714;28;20045;-77
2023/02/01 01:37:12;;;;;;;8.35;2.30;;;;;;;4.08;82.33;99753.69;10465566;28;20049;-78
2023/02/01 01:42:14;;;;;;;7.05;2.25;;;;;;;4.32;80.79;99752.53;10467197;28;20067;-78
2023/02/01 01:47:16;;;;;;;8.80;2.50;;;;;;;4.18;81.21;99752.69;10462402;28;20045;-78
2023/02/01 01:52:18;;;;;;;6.78;2.08;;;;;;;4.16;81.29;99744.91;10462881;28;20056;-77
2023/02/01 01:57:29;;;;;;;11.15;2.58;;;;;;;4.14;81.43;99735.38;10465076;28;20431;-77
2023/02/01 02:02:31;;;;;;;7.00;2.35;;;;;;;4.20;80.63;99745.72;10466088;28;20052;-78
2023/02/01 02:07:37;;;;;;;6.07;1.92;;;;;;;4.19;80.21;99739.66;10467995;28;20093;-78
2023/02/01 02:12:41;;;;;;;6.80;1.70;;;;;;;4.23;79.79;99736.16;10463730;28;20405;-79
2023/02/01 02:18:18;;;;;;;7.80;2.08;;;;;;;4.15;79.22;99732.75;10463402;28;20056;-77
2023/02/01 02:23:38;;;;;;;16.05;3.00;;;;;;;4.27;77.92;99721.38;10463535;28;20044;-78
2023/02/01 02:28:49;;;;;;;13.52;3.03;;;;;;;4.21;78.05;99727.50;10469354;28;20064;-78
2023/02/01 02:34:17;;;;;;;12.48;2.20;;;;;;;4.26;77.79;99727.47;10472701;28;20422;-78
2023/02/01 02:39:46;;;;;;;7.93;1.98;;;;;;;4.33;76.95;99723.91;10464802;28;20041;-77
2023/02/01 03:06:53;;;;;;;9.20;2.33;;;;;;;4.12;78.53;99719.81;10466705;28;20037;-79
2023/02/01 03:17:30;;;;;;;8.80;2.00;;;;;;;4.07;78.67;99736.31;10468944;28;20103;-79
2023/02/01 03:22:34;;;;;;;16.15;3.38;;;;;;;4.10;78.66;99728.50;10459642;28;20118;-78
2023/02/01 03:27:51;;;;;;;6.25;1.88;;;;;;;4.04;79.02;99732.03;10466159;28;20118;-79
2023/02/01 03:32:59;;;;;;;5.55;2.75;;;;;;;3.96;79.60;99715.63;10466839;28;20414;-78
2023/02/01 03:38:40;;;;;;;9.30;2.35;;;;;;;4.14;77.96;99707.63;10468114;28;20045;-78
2023/02/01 03:43:50;;;;;;;6.22;2.25;;;;;;;4.18;77.41;99717.13;10466529;28;20478;-78
2023/02/01 03:48:54;;;;;;;9.93;1.73;;;;;;;4.07;77.99;99705.09;10453473;28;20044;-77
2023/02/01 03:53:56;;;;;;;14.93;2.95;;;;;;;4.19;77.52;99712.78;10462795;28;20112;-79
2023/02/01 03:58:58;;;;;;;7.40;1.80;;;;;;;4.16;77.83;99705.91;10459423;28;20075;-79
2023/02/01 04:04:05;;;;;;;7.20;2.25;;;;;;;4.24;77.38;99693.63;10462692;28;20048;-79
2023/02/01 04:09:07;;;;;;;12.48;3.03;;;;;;;4.18;77.28;99690.25;10463819;28;20069;-78
2023/02/01 04:14:09;;;;;;;8.00;1.75;;;;;;;4.26;76.61;99691.03;10469684;28;20037;-78
2023/02/01 04:19:11;;;;;;;8.20;2.05;;;;;;;4.28;76.56;99684.06;10471462;28;20049;-79
2023/02/01 04:24:13;;;;;;;6.95;2.10;;;;;;;4.33;75.98;99689.22;10472839;28;20135;-77
2023/02/01 04:29:14;;;;;;;6.82;1.90;;;;;;;4.32;75.26;99672.75;10475497;28;20045;-77
2023/02/01 04:34:16;;;;;;;10.60;2.65;;;;;;;4.32;75.24;99683.16;10479971;28;20096;-78
2023/02/01 04:39:18;;;;;;;11.27;2.40;;;;;;;4.28;75.47;99674.50;10476991;28;20049;-79
2023/02/01 04:44:20;;;;;;;6.18;2.10;;;;;;;4.33;74.77;99671.00;10475965;28;20413;-78
2023/02/01 04:49:21;;;;;;;6.70;2.15;;;;;;;4.24;75.95;99664.16;10480572;28;20049;-79
2023/02/01 04:54:23;;;;;;;13.98;3.28;;;;;;;4.28;75.05;99656.28;10481741;28;20041;-78
2023/02/01 04:59:26;;;;;;;8.93;2.10;;;;;;;4.12;76.00;99646.09;10481171;28;20037;-78
2023/02/01 05:04:28;;;;;;;14.93;2.22;;;;;;;4.23;74.45;99628.63;10478181;28;20047;-80
2023/02/01 05:09:29;;;;;;;8.15;2.17;;;;;;;4.25;73.87;99617.34;10478255;28;20052;-79
2023/02/01 05:14:31;;;;;;;6.93;2.13;;;;;;;4.12;74.87;99610.56;10482998;28;20100;-79
2023/02/01 05:19:33;;;;;;;14.40;2.30;;;;;;;4.25;73.78;99603.44;10481790;28;20053;-78
2023/02/01 05:24:35;;;;;;;11.30;2.10;;;;;;;4.20;74.00;99602.63;10482936;28;20091;-78
2023/02/01 05:29:36;;;;;;;12.23;2.30;;;;;;;4.13;73.98;99590.59;10474795;28;20484;-79
2023/02/01 05:34:38;;;;;;;11.10;2.97;;;;;;;4.12;74.29;99592.34;10462436;28;20052;-80
2023/02/01 05:39:40;;;;;;;12.52;1.95;;;;;;;4.25;73.85;99600.84;10476907;28;20069;-78
2023/02/01 05:44:42;;;;;;;6.50;2.22;;;;;;;4.22;73.70;99590.50;10469739;28;20052;-79
2023/02/01 05:49:44;;;;;;;7.18;2.60;;;;;;;4.26;73.95;99594.78;10474900;28;20120;-78
2023/02/01 05:54:47;;;;;;;14.38;2.10;;;;;;;4.24;74.82;99609.53;10478513;28;20072;-79
2023/02/01 05:59:48;;;;;;;11.93;2.45;;;;;;;4.27;73.69;99605.16;10481851;28;20430;-80
2023/02/01 06:04:51;;;;;;;13.52;3.08;;;;;;;4.37;73.35;99602.41;10482964;28;20045;-80
2023/02/01 06:09:52;;;;;;;9.20;2.78;;;;;;;4.35;74.09;99599.00;10482843;28;20053;-79
2023/02/01 06:14:54;;;;;;;7.53;1.80;;;;;;;4.33;73.56;99608.53;10475668;28;20045;-80
2023/02/01 06:19:56;;;;;;;23.52;4.05;;;;;;;4.25;74.45;99598.22;10474575;28;20136;-82
2023/02/01 06:24:58;;;;;;;11.32;2.50;;;;;;;4.29;73.91;99586.91;10480139;22;20509;-74
2023/02/01 06:30:00;;;;;;;16.73;2.28;;;;;;;4.29;73.85;99594.72;10461021;28;20405;-75
2023/02/01 06:35:03;;;;;;;12.55;2.65;;;;;;;4.39;73.83;99598.94;10444832;28;20118;-74
2023/02/01 06:40:05;;;;;;;8.18;3.00;;;;;;;4.29;74.32;99600.81;10461477;28;20068;-75
2023/02/01 06:45:07;;;;;;;10.10;2.90;;;;;;;4.33;76.05;99596.41;10459868;28;20041;-75
2023/02/01 06:50:09;;;;;;;7.70;2.42;;;;;;;4.18;77.08;99597.47;10459085;28;20040;-75
2023/02/01 06:55:11;;;;;;;11.00;2.25;;;;;;;4.21;76.98;99586.19;10460354;28;20482;-75
2023/02/01 07:00:13;;;;;;;5.15;1.83;;;;;;;4.22;77.69;99580.09;10461836;28;20051;-75
2023/02/01 07:05:16;;;;;;;8.48;2.30;;;;;;;4.27;77.16;99566.13;10459973;28;20049;-75
2023/02/01 07:10:18;;;;;;;14.18;3.15;;;;;;;4.26;78.98;99574.81;10458760;28;20060;-74
2023/02/01 07:15:19;;;;;;;10.65;3.13;;;;;;;4.15;81.08;99565.44;10459165;28;20045;-74
2023/02/01 07:20:22;;;;;;;7.35;2.85;;;;;;;4.09;83.54;99570.72;10444229;28;20041;-74
2023/02/01 07:25:24;;;;;;;11.90;2.67;;;;;;;3.87;88.01;99572.72;10458295;28;20494;-74
2023/02/01 07:30:26;;;;;;;12.25;2.95;;;;;;;3.69;90.18;99560.81;10458918;28;20120;-74
2023/02/01 07:35:28;;;;;;;10.57;2.90;;;;;;;3.61;92.64;99549.63;10457511;28;20041;-73
2023/02/01 07:40:30;;;;;;;8.80;2.17;;;;;;;3.45;94.94;99542.00;10458333;28;20060;-73
2023/02/01 07:45:32;;;;;;;15.98;3.00;;;;;;;3.50;93.16;99544.56;10441204;28;20053;-72
2023/02/01 07:50:37;;;;;;;11.65;2.50;;;;;;;3.59;92.83;99544.47;10424273;28;20045;-72
2023/02/01 07:55:40;;;;;;;13.10;2.60;;;;;;;3.63;90.31;99538.34;10457473;28;20047;-71
2023/02/01 08:06:02;;;;;;;10.40;2.38;;;;;;;3.89;87.03;99529.34;10458517;28;20045;-72
2023/02/01 08:11:05;;;;;;;9.00;2.67;;;;;;;3.90;88.42;99524.16;10456355;28;20068;-73
2023/02/01 08:16:09;;;;;;;9.95;2.47;;;;;;;3.85;88.44;99538.06;10456988;28;20037;-73
2023/02/01 08:21:14;;;;;;;9.02;2.97;;;;;;;3.82;88.81;99535.53;10438931;28;20067;-71
2023/02/01 08:26:23;;;;;;;6.60;2.58;;;;;;;3.69;89.74;99511.41;10457464;28;20120;-71
2023/02/01 08:31:27;;;;;;;8.65;2.63;;;;;;;3.66;91.95;99514.03;10456716;28;20044;-71
2023/02/01 08:36:30;;;;;;;8.02;2.78;;;;;;;3.77;89.29;99488.78;10456245;28;20041;-71
2023/02/01 08:41:32;;;;;;;7.60;2.38;;;;;;;3.93;87.44;99495.47;10438356;28;20121;-71
2023/02/01 08:46:33;;;;;;;8.07;2.40;;;;;;;4.16;83.56;99490.00;10458057;28;20041;-71
2023/02/01 08:51:35;;;;;;;15.20;2.78;;;;;;;4.28;81.17;99499.34;10456328;28;20410;-71
2023/02/01 08:56:37;;;;;;;10.75;2.50;;;;;;;4.45;78.51;99489.53;10457184;28;20478;-71
2023/02/01 09:01:39;;;;;;;9.63;2.63;;;;;;;4.55;78.33;99485.03;10438436;28;20072;-72
2023/02/01 09:06:41;;;;;;;10.93;3.25;;;;;;;4.67;77.29;99474.44;10437965;28;20055;-72
2023/02/01 09:11:42;;;;;;;6.65;1.85;;;;;;;4.62;77.28;99478.00;10439463;28;20048;-72
2023/02/01 09:16:44;;;;;;;7.00;2.17;;;;;;;4.59;79.12;99480.66;10460476;28;20041;-73
2023/02/01 09:21:46;;;;;;;5.68;2.22;;;;;;;4.58;79.41;99505.81;10463113;28;20045;-73
2023/02/01 09:26:48;;;;;;;6.18;1.73;;;;;;;4.43;81.35;99504.31;10463976;28;20083;-72
2023/02/01 09:31:49;;;;;;;7.63;2.08;;;;;;;4.20;85.63;99509.00;10463659;28;20562;-73
2023/02/01 09:37:04;;;;;;;7.43;2.25;;;;;;;4.07;88.54;99497.03;10462547;28;20044;-72
2023/02/01 09:42:19;;;;;;;8.20;2.63;;;;;;;4.04;90.41;99498.81;10444949;28;20134;-72
2023/02/01 09:47:24;;;;;;;11.82;2.67;;;;;;;3.85;94.78;99520.75;10463484;28;20128;-71
2023/02/01 09:52:38;;;;;;;11.43;2.92;;;;;;;3.46;98.04;99533.34;10497461;28;20129;-71
2023/02/01 09:57:47;;;;;;;8.27;2.65;;;;;;;3.10;100.00;99538.88;10504291;28;20504;-71
2023/02/01 10:02:50;;;;;;;8.45;2.05;;;;;;;2.93;100.00;99534.72;10486853;28;20548;-71
2023/02/01 10:08:18;;;;;;;5.32;1.77;;;;;;;2.89;100.00;99546.00;10503867;28;20063;-71
2023/02/01 10:13:41;;;;;;;6.55;2.67;;;;;;;2.77;100.00;99548.69;10485614;28;20075;-70
2023/02/01 10:18:50;;;;;;;10.85;2.40;;;;;;;2.85;100.00;99556.44;10485888;28;20043;-71
2023/02/01 10:24:03;;;;;;;5.90;2.20;;;;;;;2.96;100.00;99545.06;10502353;28;20063;-71
2023/02/01 10:29:20;;;;;;;3.90;1.47;;;;;;;3.07;100.00;99550.19;10486634;28;20041;-71
2023/02/01 10:34:29;;;;;;;15.15;2.53;;;;;;;3.18;100.00;99560.44;10484464;28;20045;-72
2023/02/01 10:39:31;;;;;;;8.10;3.00;;;;;;;3.28;100.00;99557.78;10486708;28;20036;-72
2023/02/01 10:44:40;;;;;;;6.90;2.28;;;;;;;3.42;100.00;99559.38;10501735;28;20048;-71
2023/02/01 10:50:15;;;;;;;8.90;2.65;;;;;;;3.48;100.00;99565.34;10501292;28;20045;-72
2023/02/01 10:55:27;;;;;;;14.13;3.63;;;;;;;3.76;100.00;99558.13;10501409;28;20055;-73
2023/02/01 11:00:43;;;;;;;9.25;2.88;;;;;;;4.04;99.58;99570.78;10503618;28;20068;-73
2023/02/01 11:05:47;;;;;;;11.07;2.80;;;;;;;4.18;96.24;99573.19;10500840;28;20055;-74
2023/02/01 11:11:01;;;;;;;9.38;2.33;;;;;;;4.39;93.92;99582.47;10501019;28;20050;-73
2023/02/01 11:16:04;;;;;;;6.35;2.00;;;;;;;4.41;92.76;99580.69;10501412;28;20048;-72
2023/02/01 11:21:08;;;;;;;11.50;3.00;;;;;;;4.45;92.65;99566.75;10504059;28;20044;-72
2023/02/01 11:26:25;;;;;;;6.95;2.42;;;;;;;4.62;88.33;99563.91;10499987;28;20162;-73
2023/02/01 11:31:28;;;;;;;13.88;2.72;;;;;;;4.71;90.06;99571.56;10499681;28;20387;-71
2023/02/01 11:36:32;;;;;;;6.78;2.20;;;;;;;4.84;86.76;99554.88;10499674;28;20033;-72
2023/02/01 11:41:40;;;;;;;8.43;2.08;;;;;;;4.86;87.29;99552.22;10500294;28;20047;-73
2023/02/01 11:46:41;;;;;;;7.13;2.20;;;;;;;4.85;86.11;99533.16;10500488;28;20482;-72
2023/02/01 11:51:54;;;;;;;11.57;2.63;;;;;;;4.96;86.75;99553.81;10481420;28;20482;-72
2023/02/01 11:57:18;;;;;;;12.07;2.63;;;;;;;4.88;88.01;99527.03;10499174;28;20040;-72
2023/02/01 12:02:25;;;;;;;8.52;2.13;;;;;;;4.71;91.20;99522.97;10499273;28;20039;-72
2023/02/01 12:07:46;;;;;;;6.72;2.35;;;;;;;4.79;89.91;99528.06;10500425;28;20402;-72
2023/02/01 12:12:48;;;;;;;12.38;2.65;;;;;;;4.98;88.29;99520.78;10499131;28;20044;-72
2023/02/01 12:18:06;;;;;;;9.90;2.15;;;;;;;5.11;84.04;99522.28;10481223;28;20037;-72
2023/02/01 12:23:19;;;;;;;8.45;1.70;;;;;;;5.07;83.00;99511.06;10503854;22;20051;-76
2023/02/01 12:29:00;;;;;;;6.20;1.80;;;;;;;5.00;82.28;99509.47;10457544;28;20550;-76
2023/02/01 12:34:01;;;;;;;8.52;1.95;;;;;;;5.13;81.38;99509.22;10398643;28;20477;-77
2023/02/01 12:39:09;;;;;;;6.38;1.70;;;;;;;4.96;82.58;99515.59;10416259;28;20052;-77
2023/02/01 12:44:16;;;;;;;6.20;1.60;;;;;;;5.17;82.19;99510.88;10415017;28;20087;-75
2023/02/01 12:49:27;;;;;;;6.45;1.77;;;;;;;5.13;82.57;99523.09;10417581;28;20450;-76
2023/02/01 12:54:42;;;;;;;13.20;2.30;;;;;;;5.12;82.80;99505.75;10407273;28;20140;-77
2023/02/01 13:00:02;;;;;;;7.95;2.80;;;;;;;5.26;83.26;99508.97;10424786;28;20402;-77
2023/02/01 13:05:17;;;;;;;5.15;1.88;;;;;;;5.42;80.55;99493.06;10406572;28;20096;-76
2023/02/01 13:10:30;;;;;;;6.63;1.70;;;;;;;5.44;79.81;99502.53;10406035;28;20383;-76
2023/02/01 13:15:38;;;;;;;8.30;2.30;;;;;;;5.46;79.89;99492.97;10405643;28;20054;-77
2023/02/01 13:21:06;;;;;;;7.97;2.15;;;;;;;5.53;79.85;99494.56;10405881;28;20126;-77
2023/02/01 13:26:08;;;;;;;5.63;1.88;;;;;;;5.54;78.87;99495.44;10417238;28;20117;-77
2023/02/01 13:31:19;;;;;;;9.18;2.42;;;;;;;5.63;77.70;99483.97;10421951;28;20046;-76
2023/02/01 13:36:44;;;;;;;12.95;2.20;;;;;;;5.66;77.06;99478.66;10422361;28;20487;-78
2023/02/01 13:41:59;;;;;;;8.50;2.38;;;;;;;5.74;75.31;99474.16;10423534;28;20057;-77
2023/02/01 13:47:10;;;;;;;6.70;1.77;;;;;;;5.88;75.19;99466.03;10421308;28;20042;-77
2023/02/01 13:52:40;;;;;;;10.07;1.98;;;;;;;5.78;73.93;99460.16;10404872;28;20414;-77
2023/02/01 13:57:44;;;;;;;5.13;1.42;;;;;;;5.72;72.83;99449.84;10421215;28;20054;-77
2023/02/01 14:02:49;;;;;;;5.55;2.28;;;;;;;5.64;73.55;99446.56;10403407;28;20459;-76
2023/02/01 14:08:09;;;;;;;5.82;1.33;;;;;;;5.79;70.58;99457.50;10404328;28;20514;-77
2023/02/01 14:13:35;;;;;;;5.95;1.38;;;;;;;5.74;71.38;99461.09;10404576;28;20060;-77
2023/02/01 14:18:37;;;;;;;8.32;2.05;;;;;;;5.65;72.61;99459.53;10403139;28;20562;-77
2023/02/01 14:23:42;;;;;;;6.72;1.63;;;;;;;5.76;69.58;99443.69;10403052;28;20128;-77
2023/02/01 14:29:09;;;;;;;8.32;1.85;;;;;;;5.70;69.51;99444.66;10420839;28;20040;-77
2023/02/01 14:34:24;;;;;;;6.47;1.75;;;;;;;5.73;68.68;99436.78;10421793;28;20104;-76
2023/02/01 14:39:37;;;;;;;4.28;1.75;;;;;;;5.68;68.51;99438.63;10403950;28;20420;-77
2023/02/01 14:44:39;;;;;;;6.20;2.00;;;;;;;5.64;69.80;99436.97;10402925;28;20483;-76
2023/02/01 14:50:12;;;;;;;4.80;1.80;;;;;;;5.59;70.37;99432.75;10401444;28;20546;-77
2023/02/01 14:55:35;;;;;;;5.72;1.95;;;;;;;5.45;71.25;99436.50;10387516;28;20459;-76
2023/02/01 15:00:37;;;;;;;6.45;2.33;;;;;;;5.50;69.86;99434.66;10402642;28;20037;-77
2023/02/01 15:05:39;;;;;;;6.95;2.50;;;;;;;5.36;71.50;99438.41;10419839;28;20084;-77
2023/02/01 15:10:45;;;;;;;5.22;1.80;;;;;;;5.36;70.55;99423.66;10401761;28;20092;-76
2023/02/01 15:16:01;;;;;;;6.40;1.90;;;;;;;5.42;70.35;99427.88;10419437;28;20494;-76
2023/02/01 15:21:05;;;;;;;5.90;2.00;;;;;;;5.39;73.59;99412.31;10402181;28;20069;-77
2023/02/01 15:26:29;;;;;;;4.85;1.98;;;;;;;5.15;75.79;99396.28;10402439;28;20099;-77
2023/02/01 15:31:40;;;;;;;6.63;1.95;;;;;;;4.90;77.63;99380.28;10402924;28;20499;-77
2023/02/01 15:36:44;;;;;;;7.07;2.50;;;;;;;4.92;76.71;99375.91;10420508;28;20041;-77
2023/02/01 15:42:15;;;;;;;10.07;2.67;;;;;;;5.02;74.67;99354.00;10419818;28;20479;-76
2023/02/01 15:47:20;;;;;;;5.03;1.40;;;;;;;5.00;72.90;99350.56;10402350;28;20470;-76
2023/02/01 15:52:41;;;;;;;4.43;1.90;;;;;;;5.10;72.71;99335.59;10420754;28;20136;-76
2023/02/01 15:57:43;;;;;;;5.78;2.08;;;;;;;5.17;71.03;99344.13;10419707;28;20494;-76
2023/02/01 16:03:00;;;;;;;6.88;1.75;;;;;;;5.23;70.86;99352.69;10418951;28;20510;-77
2023/02/01 16:08:21;;;;;;;10.07;2.55;;;;;;;4.88;76.64;99348.22;10418738;28;20048;-76
2023/02/01 16:13:23;;;;;;;5.78;2.05;;;;;;;4.51;81.34;99322.00;10417570;28;20049;-76
2023/02/01 16:18:25;;;;;;;6.88;2.17;;;;;;;4.34;82.54;99311.94;10417952;28;20041;-77
2023/02/01 16:23:28;;;;;;;8.27;2.55;;;;;;;4.34;83.39;99291.09;10417361;28;20041;-76
2023/02/01 16:28:33;;;;;;;6.88;2.72;;;;;;;4.28;84.86;99291.19;10424824;28;20044;-77
2023/02/01 16:33:35;;;;;;;7.20;2.60;;;;;;;4.11;88.05;99285.44;10423028;28;20050;-76
2023/02/01 16:38:37;;;;;;;8.63;2.92;;;;;;;4.08;90.44;99301.13;10423145;28;20052;-77
2023/02/01 16:43:39;;;;;;;5.43;2.95;;;;;;;3.89;93.16;99334.34;10424414;28;20051;-77
2023/02/01 16:48:42;;;;;;;6.55;2.58;;;;;;;3.76;94.91;99344.06;10424165;28;20104;-76
2023/02/01 16:53:45;;;;;;;8.35;2.80;;;;;;;3.77;95.88;99328.47;10389807;28;20050;-77
2023/02/01 16:58:56;;;;;;;6.97;2.88;;;;;;;3.84;96.28;99377.75;10423912;28;20042;-75
2023/02/01 17:03:57;;;;;;;9.07;2.75;;;;;;;3.68;97.73;99463.78;10421992;28;20148;-75
2023/02/01 17:09:02;;;;;;;6.65;2.53;;;;;;;2.21;100.00;99492.91;10424197;28;20045;-75
2023/02/01 17:14:18;;;;;;;2.05;0.85;;;;;;;1.64;100.00;99417.22;10406043;28;20054;-74
2023/02/01 17:19:22;;;;;;;0.80;0.55;;;;;;;1.46;100.00;99366.38;10423919;28;20045;-74
2023/02/01 17:24:29;;;;;;;0.95;0.50;;;;;;;1.52;100.00;99393.13;10405627;28;20449;-72
2023/02/01 17:29:47;;;;;;;0.20;0.20;;;;;;;1.76;100.00;99406.78;10407801;28;20112;-73
2023/02/01 17:34:49;;;;;;;0.50;0.30;;;;;;;1.92;100.00;99407.56;10421675;28;20072;-74
2023/02/01 17:39:54;;;;;;;1.70;0.90;;;;;;;1.90;100.00;99422.25;10404441;28;20050;-73
2023/02/01 17:44:59;;;;;;;7.05;1.77;;;;;;;1.92;100.00;99433.47;10404876;28;20108;-75
2023/02/01 17:50:01;;;;;;;2.40;0.85;;;;;;;1.96;100.00;99451.59;10444194;28;20044;-75
2023/02/01 17:55:16;;;;;;;0.90;0.90;;;;;;;2.13;100.00;99450.63;10456046;28;20047;-75
2023/02/01 18:00:19;;;;;;;3.40;1.00;;;;;;;2.23;100.00;99457.47;10422497;28;20113;-74
2023/02/01 18:05:26;;;;;;;2.33;0.80;;;;;;;2.37;100.00;99467.72;10424595;28;20047;-75
2023/02/01 18:10:27;;;;;;;3.40;1.05;;;;;;;2.38;100.00;99472.88;10446203;28;20055;-76
2023/02/01 18:15:30;;;;;;;3.13;1.20;;;;;;;2.37;100.00;99475.50;10445607;28;20048;-76
2023/02/01 18:20:34;;;;;;;4.28;2.00;;;;;;;2.18;100.00;99483.41;10439128;28;20450;-76
2023/02/01 18:25:37;;;;;;;4.63;0.93;;;;;;;2.45;100.00;99489.28;10477729;23;20137;-75
2023/02/01 18:30:39;;;;;;;3.85;0.70;;;;;;;2.52;100.00;99476.25;10544430;28;20039;-75
2023/02/01 18:35:42;;;;;;;3.97;1.13;;;;;;;2.46;100.00;99475.44;10586340;28;20043;-75
2023/02/01 18:40:52;;;;;;;3.58;0.90;;;;;;;2.35;100.00;99477.25;10586661;28;20155;-76
2023/02/01 18:45:54;;;;;;;7.30;1.23;;;;;;;2.27;100.00;99485.94;10587927;28;20067;-76
2023/02/01 18:50:56;;;;;;;5.20;1.08;;;;;;;2.33;100.00;99487.63;10587513;28;20404;-75
2023/02/01 18:55:58;;;;;;;2.88;0.80;;;;;;;2.41;99.83;99474.59;10588806;28;20461;-76
2023/02/01 19:01:06;;;;;;;4.30;1.02;;;;;;;2.38;99.15;99478.06;10586234;28;20136;-75
2023/02/01 19:06:08;;;;;;;3.33;0.93;;;;;;;2.38;98.18;99462.50;10568254;28;20047;-75
2023/02/01 19:11:10;;;;;;;2.15;0.85;;;;;;;2.39;97.36;99465.97;10589107;28;20055;-76
2023/02/01 19:16:12;;;;;;;3.63;1.23;;;;;;;2.50;95.69;99479.72;10586463;28;20050;-75
2023/02/01 19:21:14;;;;;;;3.28;0.90;;;;;;;2.38;96.63;99479.81;10569599;28;20140;-75
2023/02/01 19:26:17;;;;;;;2.80;1.05;;;;;;;2.48;95.70;99471.97;10586081;28;20044;-75
2023/02/01 19:31:19;;;;;;;2.65;1.25;;;;;;;2.60;94.57;99477.91;10571241;28;20099;-74
2023/02/01 19:36:20;;;;;;;2.88;0.70;;;;;;;2.67;94.24;99484.78;10586557;28;20455;-75
2023/02/01 19:41:22;;;;;;;3.50;0.60;;;;;;;2.72;94.53;99483.00;10585882;28;20101;-75
2023/02/01 19:46:24;;;;;;;2.00;0.95;;;;;;;2.80;94.21;99490.72;10586378;28;20058;-76
2023/02/01 19:51:26;;;;;;;2.63;0.73;;;;;;;2.77;94.13;99496.78;10586571;28;20558;-74
2023/02/01 19:56:28;;;;;;;3.00;1.17;;;;;;;2.75;95.56;99493.38;10572225;28;20059;-74
2023/02/01 20:01:31;;;;;;;3.08;0.85;;;;;;;2.95;92.68;99485.38;10567463;28;20074;-75
2023/02/01 20:06:37;;;;;;;3.65;1.55;;;;;;;2.89;93.87;99491.50;10589818;28;20043;-76
2023/02/01 20:11:40;;;;;;;4.00;1.00;;;;;;;2.93;94.46;99515.69;10586340;28;20043;-75
2023/02/01 20:16:42;;;;;;;2.33;1.00;;;;;;;2.90;95.01;99505.34;10588401;28;20039;-74
2023/02/01 20:21:44;;;;;;;4.80;1.55;;;;;;;3.03;92.53;99515.59;10584981;28;20131;-75
2023/02/01 20:26:47;;;;;;;6.78;1.40;;;;;;;3.02;92.23;99526.00;10589120;28;20039;-74
2023/02/01 20:31:50;;;;;;;4.82;1.10;;;;;;;3.01;92.72;99539.81;10584749;28;20489;-75
2023/02/01 20:36:52;;;;;;;3.97;0.90;;;;;;;2.73;99.32;99560.84;10567725;28;20040;-76
2023/02/01 20:41:54;;;;;;;4.00;1.77;;;;;;;2.67;100.00;99555.69;10583612;28;20508;-76
2023/02/01 20:46:57;;;;;;;2.67;0.98;;;;;;;2.56;100.00;99556.63;10582909;28;20058;-77
2023/02/01 20:51:59;;;;;;;4.35;1.10;;;;;;;2.57;100.00;99555.75;10564969;28;20074;-76
2023/02/01 20:57:01;;;;;;;3.50;0.90;;;;;;;2.66;100.00;99548.81;10584521;28;20050;-76
2023/02/01 21:02:03;;;;;;;1.40;0.60;;;;;;;2.81;98.67;99545.22;10590215;28;20392;-76
2023/02/01 21:07:05;;;;;;;2.22;1.10;;;;;;;2.77;98.42;99548.69;10585931;28;20063;-76
2023/02/01 21:12:06;;;;;;;1.88;0.88;;;;;;;2.70;99.30;99547.91;10571185;28;20048;-76
2023/02/01 21:17:08;;;;;;;3.13;0.90;;;;;;;2.86;97.51;99553.81;10592651;28;20130;-76
2023/02/01 21:22:11;;;;;;;2.67;1.27;;;;;;;2.81;96.99;99545.22;10595384;28;20046;-75
2023/02/01 21:27:13;;;;;;;2.80;0.90;;;;;;;2.88;96.40;99548.59;10591519;28;20044;-75
2023/02/01 21:32:15;;;;;;;3.78;1.10;;;;;;;2.86;97.40;99556.41;10592876;28;20120;-76
2023/02/01 21:37:17;;;;;;;3.20;0.95;;;;;;;2.79;98.10;99546.97;10572516;28;20035;-76
2023/02/01 21:42:20;;;;;;;4.18;1.30;;;;;;;2.79;98.26;99559.94;10590820;28;20040;-75
2023/02/01 21:47:22;;;;;;;3.63;1.05;;;;;;;2.76;98.57;99566.00;10591024;28;20062;-74
2023/02/01 21:52:27;;;;;;;4.38;0.90;;;;;;;2.78;98.64;99561.66;10570420;28;20089;-74
2023/02/01 21:57:29;;;;;;;6.70;1.52;;;;;;;2.85;97.60;99570.28;10571377;28;20058;-73
2023/02/01 22:02:30;;;;;;;2.78;0.90;;;;;;;2.83;98.27;99571.13;10587944;28;20482;-73
2023/02/01 22:07:34;;;;;;;7.57;1.95;;;;;;;2.77;99.20;99562.53;10592108;28;20036;-72
2023/02/01 22:12:36;;;;;;;2.83;1.20;;;;;;;2.74;99.91;99570.34;10590161;28;20035;-73
2023/02/01 22:17:38;;;;;;;5.65;1.50;;;;;;;2.75;100.00;99568.63;10571056;28;20046;-74
2023/02/01 22:22:40;;;;;;;4.00;1.63;;;;;;;2.72;100.00;99563.44;10590035;28;20046;-72
2023/02/01 22:27:41;;;;;;;4.82;2.03;;;;;;;2.69;100.00;99560.88;10591170;28;20063;-72
2023/02/01 22:33:03;;;;;;;5.25;1.88;;;;;;;2.78;100.00;99561.66;10568451;28;20142;-72
2023/02/01 22:38:05;;;;;;;3.80;1.50;;;;;;;2.88;98.94;99584.94;10586224;28;20460;-72
2023/02/01 22:43:06;;;;;;;5.05;1.70;;;;;;;2.93;98.15;99571.06;10586416;28;20039;-72
2023/02/01 22:48:08;;;;;;;4.30;1.70;;;;;;;2.99;97.98;99576.19;10595798;28;20048;-72
2023/02/01 22:53:10;;;;;;;5.65;1.92;;;;;;;2.99;96.97;99573.59;10590905;28;20073;-72
2023/02/01 22:58:12;;;;;;;4.05;1.80;;;;;;;2.99;96.90;99568.41;10587368;28;20039;-72
2023/02/01 23:03:14;;;;;;;5.05;1.85;;;;;;;2.91;96.22;99565.00;10568600;28;20059;-72
2023/02/01 23:08:16;;;;;;;4.45;1.30;;;;;;;2.96;95.47;99573.63;10584828;28;20054;-72
2023/02/01 23:13:17;;;;;;;4.35;1.08;;;;;;;2.95;94.09;99569.31;10570879;28;20093;-74
2023/02/01 23:18:19;;;;;;;7.65;1.77;;;;;;;3.04;93.64;99553.66;10585224;28;20040;-72
2023/02/01 23:23:21;;;;;;;6.15;1.30;;;;;;;2.85;93.54;99566.81;10583994;28;20050;-73
2023/02/01 23:28:22;;;;;;;4.32;1.50;;;;;;;2.83;94.54;99547.78;10587313;28;20036;-73
2023/02/01 23:33:25;;;;;;;2.78;0.95;;;;;;;2.91;93.23;99565.00;10588019;28;20067;-73
2023/02/01 23:38:28;;;;;;;3.55;1.00;;;;;;;2.83;94.96;99571.13;10583792;28;20071;-72
2023/02/01 23:48:51;;;;;;;6.65;1.00;;;;;;;2.92;94.32;99579.75;10583808;28;20039;-72
2023/02/01 23:53:54;;;;;;;5.18;1.35;;;;;;;2.99;94.58;99589.19;10586926;28;20388;-73
2023/02/01 23:58:56;;;;;;;3.45;1.65;;;;;;;2.89;94.81;99581.50;10585494;28;20438;-72
